Terminal Aerodrome Forecast
Issued by NWS

Home | Current Version | Previous Version | Text Only | Print | Product List | Glossary On
Versions: 1 2 3 4 5 6 7 8 9 10 11 12 13 14
000
FTUS44 KTSA 021128
TAFMLC
TAF
KMLC 021128Z 0212/0312 00000KT P6SM SKC
     FM021600 19009KT P6SM SCT050
     FM030000 14004KT P6SM SKC=

USA.gov is the U.S. government's official web portal to all federal, state and local government web resources and services.